createdAt,value
2022-12-18T00:02:13.494Z,2.67
2022-12-18T00:04:40.245Z,1.93
2022-12-18T00:07:06.884Z,2.50
2022-12-18T00:09:40.158Z,2.80
2022-12-18T00:14:45.315Z,2.73
2022-12-18T00:17:12.048Z,4.53
2022-12-18T00:19:38.627Z,3.77
2022-12-18T00:22:06.069Z,3.13
2022-12-18T00:24:32.804Z,3.53
2022-12-18T00:26:59.357Z,2.97
2022-12-18T00:29:25.882Z,3.40
2022-12-18T00:31:52.571Z,3.93
2022-12-18T00:34:19.161Z,2.80
2022-12-18T00:36:49.128Z,3.33
2022-12-18T00:39:15.833Z,2.78
2022-12-18T00:42:01.246Z,2.17
2022-12-18T00:44:27.841Z,4.10
2022-12-18T00:46:54.409Z,3.63
2022-12-18T00:49:21.376Z,2.97
2022-12-18T00:51:48.448Z,4.50
2022-12-18T00:54:15.384Z,3.27
2022-12-18T00:56:49.978Z,3.10
2022-12-18T00:59:17.728Z,2.83
2022-12-18T01:01:44.793Z,3.43
2022-12-18T01:04:11.556Z,3.10
2022-12-18T01:06:38.189Z,1.90
2022-12-18T01:09:05.548Z,2.80
2022-12-18T01:11:32.138Z,3.43
2022-12-18T01:13:58.811Z,2.83
2022-12-18T01:16:25.433Z,3.47
2022-12-18T01:18:53.865Z,3.00
2022-12-18T01:21:21.287Z,3.87
2022-12-18T01:23:47.955Z,3.43
2022-12-18T01:26:18.189Z,3.00
2022-12-18T01:28:45.544Z,3.30
2022-12-18T01:31:27.935Z,4.20
2022-12-18T01:33:55.155Z,3.30
2022-12-18T01:36:27.890Z,2.27
2022-12-18T01:38:54.734Z,3.30
2022-12-18T01:41:27.927Z,2.70
2022-12-18T01:43:57.969Z,3.07
2022-12-18T01:46:26.843Z,4.03
2022-12-18T01:49:03.095Z,2.80
2022-12-18T01:51:31.352Z,3.13
2022-12-18T01:54:00.146Z,3.10
2022-12-18T01:56:26.809Z,2.87
2022-12-18T01:59:12.658Z,3.93
2022-12-18T02:01:39.322Z,3.50
2022-12-18T02:04:27.270Z,4.07
2022-12-18T02:07:31.724Z,3.23
2022-12-18T02:09:58.238Z,2.77
2022-12-18T02:12:28.863Z,2.07
2022-12-18T02:15:10.365Z,2.78
2022-12-18T02:17:43.980Z,2.70
2022-12-18T02:20:18.263Z,3.03
2022-12-18T02:22:44.729Z,3.20
2022-12-18T02:25:29.539Z,3.47
2022-12-18T02:28:02.546Z,4.00
2022-12-18T02:30:34.033Z,4.20
2022-12-18T02:33:04.957Z,3.47
2022-12-18T02:35:35.468Z,3.10
2022-12-18T02:38:04.102Z,3.17
2022-12-18T02:40:32.070Z,4.40
2022-12-18T02:43:13.737Z,2.67
2022-12-18T02:45:54.794Z,4.80
2022-12-18T02:48:28.921Z,3.40
2022-12-18T02:51:24.920Z,3.80
2022-12-18T02:53:59.438Z,3.93
2022-12-18T02:56:51.964Z,2.90
2022-12-18T02:59:25.478Z,2.23
2022-12-18T03:01:58.192Z,4.53
2022-12-18T03:05:02.060Z,3.63
2022-12-18T03:07:39.215Z,4.17
2022-12-18T03:10:09.324Z,1.70
2022-12-18T03:12:41.414Z,2.08
2022-12-18T03:15:08.064Z,2.97
2022-12-18T03:17:36.095Z,2.83
2022-12-18T03:20:14.036Z,3.60
2022-12-18T03:22:44.240Z,3.33
2022-12-18T03:25:13.985Z,3.63
2022-12-18T03:27:47.476Z,4.00
2022-12-18T03:30:16.067Z,2.57
2022-12-18T03:32:59.986Z,2.97
2022-12-18T03:35:32.800Z,3.13
2022-12-18T03:37:59.696Z,2.97
2022-12-18T03:40:36.282Z,3.43
2022-12-18T03:43:21.888Z,3.17
2022-12-18T03:45:55.566Z,2.83
2022-12-18T03:48:29.075Z,4.23
2022-12-18T03:51:03.080Z,3.40
2022-12-18T03:53:35.575Z,2.87
2022-12-18T03:56:04.992Z,4.63
2022-12-18T03:58:34.991Z,3.53
2022-12-18T04:01:04.529Z,2.83
2022-12-18T04:03:33.265Z,3.97
2022-12-18T04:06:01.891Z,4.17
2022-12-18T04:08:29.525Z,3.87
2022-12-18T04:10:56.205Z,4.10
2022-12-18T04:13:24.457Z,3.00
2022-12-18T04:15:51.248Z,3.37
2022-12-18T04:18:17.830Z,2.73
2022-12-18T04:20:44.399Z,4.07
2022-12-18T04:23:10.988Z,4.10
2022-12-18T04:25:37.617Z,2.80
2022-12-18T04:28:04.273Z,3.53
2022-12-18T04:30:30.908Z,4.47
2022-12-18T04:32:57.517Z,3.57
2022-12-18T04:35:24.080Z,3.73
2022-12-18T04:37:50.658Z,3.33
2022-12-18T04:40:18.609Z,4.47
2022-12-18T04:42:45.181Z,3.97
2022-12-18T04:45:11.941Z,3.10
2022-12-18T04:47:38.501Z,3.67
2022-12-18T04:50:05.715Z,3.07
2022-12-18T04:52:32.308Z,5.20
2022-12-18T04:54:58.909Z,3.90
2022-12-18T04:57:25.461Z,4.00
2022-12-18T04:59:52.036Z,3.73
2022-12-18T05:02:18.796Z,4.17
2022-12-18T05:04:45.425Z,3.17
2022-12-18T05:07:12.004Z,3.43
2022-12-18T05:09:38.581Z,2.57
2022-12-18T05:12:05.353Z,2.53
2022-12-18T05:14:31.933Z,4.60
2022-12-18T05:17:01.043Z,4.53
2022-12-18T05:19:27.997Z,3.17
2022-12-18T05:21:54.598Z,3.40
2022-12-18T05:24:21.181Z,3.03
2022-12-18T05:26:47.722Z,4.63
2022-12-18T05:29:14.276Z,3.83
2022-12-18T05:31:41.550Z,4.27
2022-12-18T05:34:09.574Z,4.23
2022-12-18T05:36:37.534Z,4.03
2022-12-18T05:39:04.318Z,4.13
2022-12-18T05:41:30.996Z,3.63
2022-12-18T05:43:57.762Z,3.53
2022-12-18T05:46:25.290Z,4.20
2022-12-18T05:48:52.589Z,4.60
2022-12-18T05:51:22.010Z,3.43
2022-12-18T05:53:49.224Z,3.90
2022-12-18T05:56:18.787Z,2.90
2022-12-18T05:58:46.260Z,3.63
2022-12-18T06:01:17.524Z,4.20
2022-12-18T06:03:45.106Z,3.43
2022-12-18T06:06:26.654Z,4.03
2022-12-18T06:08:54.416Z,3.93
2022-12-18T06:11:26.306Z,3.07
2022-12-18T06:13:58.214Z,2.10
2022-12-18T06:16:25.750Z,5.17
2022-12-18T06:18:52.410Z,3.10
2022-12-18T06:21:18.965Z,3.00
2022-12-18T06:23:45.540Z,3.87
2022-12-18T06:26:13.694Z,4.43
2022-12-18T06:28:40.500Z,3.90
2022-12-18T06:31:08.266Z,2.87
2022-12-18T06:33:35.649Z,3.53
2022-12-18T06:36:08.051Z,2.97
2022-12-18T06:38:35.857Z,5.67
2022-12-18T06:41:10.067Z,4.23
2022-12-18T06:43:37.857Z,3.90
2022-12-18T06:46:06.025Z,3.47
2022-12-18T06:48:33.247Z,4.10
2022-12-18T06:51:00.196Z,2.73
2022-12-18T06:53:26.800Z,4.10
2022-12-18T06:55:53.452Z,4.63
2022-12-18T06:58:20.115Z,5.40
2022-12-18T07:00:46.752Z,3.33
2022-12-18T07:03:13.444Z,3.13
2022-12-18T07:05:43.246Z,3.50
2022-12-18T07:08:09.823Z,4.50
2022-12-18T07:10:47.548Z,4.77
2022-12-18T07:13:16.565Z,3.67
2022-12-18T07:15:43.708Z,3.87
2022-12-18T07:18:10.916Z,3.50
2022-12-18T07:20:37.725Z,4.13
2022-12-18T07:23:06.119Z,3.93
2022-12-18T07:25:36.792Z,3.73
2022-12-18T07:28:04.183Z,5.50
2022-12-18T07:30:30.826Z,4.40
2022-12-18T07:32:57.514Z,4.03
2022-12-18T07:35:25.323Z,4.90
2022-12-18T07:37:52.185Z,3.67
2022-12-18T07:40:18.834Z,3.20
2022-12-18T07:42:45.390Z,3.37
2022-12-18T07:45:12.033Z,3.53
2022-12-18T07:47:38.825Z,5.00
2022-12-18T07:50:06.295Z,4.97
2022-12-18T07:52:32.866Z,4.03
2022-12-18T07:54:59.956Z,5.67
2022-12-18T07:57:49.406Z,5.10
2022-12-18T08:00:13.960Z,4.23
2022-12-18T08:02:40.715Z,3.30
2022-12-18T08:05:09.364Z,3.77
2022-12-18T08:07:36.033Z,5.17
2022-12-18T08:10:02.634Z,4.47
2022-12-18T08:12:29.292Z,3.27
2022-12-18T08:14:55.853Z,5.57
2022-12-18T08:17:22.480Z,4.60
2022-12-18T08:19:49.059Z,3.03
2022-12-18T08:22:15.659Z,5.67
2022-12-18T08:24:42.378Z,4.50
2022-12-18T08:29:56.297Z,4.20
2022-12-18T08:32:22.940Z,5.00
2022-12-18T08:34:49.611Z,3.63
2022-12-18T08:37:16.185Z,5.90
2022-12-18T08:39:42.777Z,4.43
2022-12-18T08:42:28.135Z,3.83
2022-12-18T08:44:54.747Z,5.60
2022-12-18T08:47:21.392Z,3.63
2022-12-18T08:49:48.129Z,4.43
2022-12-18T08:52:14.732Z,5.47
2022-12-18T08:54:41.336Z,4.43
2022-12-18T08:57:07.893Z,4.47
2022-12-18T08:59:34.421Z,5.27
2022-12-18T09:02:01.277Z,3.10
2022-12-18T09:04:28.095Z,3.23
2022-12-18T09:06:54.604Z,5.63
2022-12-18T09:09:21.250Z,4.33
2022-12-18T09:11:47.837Z,4.67
2022-12-18T09:14:14.393Z,5.37
2022-12-18T09:16:41.088Z,5.63
2022-12-18T09:19:07.950Z,4.13
2022-12-18T09:21:37.420Z,3.97
2022-12-18T09:24:06.992Z,5.73
2022-12-18T09:26:35.589Z,3.33
2022-12-18T09:29:03.561Z,4.00
2022-12-18T09:31:30.114Z,5.93
2022-12-18T09:33:57.759Z,5.30
2022-12-18T09:36:24.443Z,5.60
2022-12-18T09:38:51.598Z,3.53
2022-12-18T09:41:27.323Z,5.00
2022-12-18T09:44:00.612Z,5.53
2022-12-18T09:46:44.159Z,4.37
2022-12-18T09:49:21.447Z,6.97
2022-12-18T09:51:50.582Z,9.93
2022-12-18T09:54:23.818Z,7.30
2022-12-18T09:56:50.409Z,7.43
2022-12-18T09:59:24.876Z,5.13
2022-12-18T10:01:52.050Z,5.53
2022-12-18T10:04:18.827Z,6.87
2022-12-18T10:06:55.930Z,6.47
2022-12-18T10:09:34.933Z,5.60
2022-12-18T10:12:07.539Z,6.00
2022-12-18T10:14:49.324Z,6.97
2022-12-18T10:17:39.450Z,4.50
2022-12-18T10:20:26.625Z,4.73
2022-12-18T10:23:46.528Z,2.80
2022-12-18T10:26:14.879Z,6.80
2022-12-18T10:28:42.891Z,5.27
2022-12-18T10:31:19.814Z,6.50
2022-12-18T10:33:46.772Z,6.17
2022-12-18T10:36:13.642Z,5.23
2022-12-18T10:38:40.963Z,7.00
2022-12-18T10:41:27.751Z,7.30
2022-12-18T10:44:27.126Z,3.57
2022-12-18T10:47:10.106Z,6.77
2022-12-18T10:49:53.986Z,5.33
2022-12-18T10:52:26.267Z,5.97
2022-12-18T10:54:56.603Z,7.33
2022-12-18T10:57:34.334Z,6.30
2022-12-18T11:00:22.278Z,7.03
2022-12-18T11:02:49.343Z,5.20
2022-12-18T11:05:34.922Z,6.23
2022-12-18T11:08:02.768Z,6.17
2022-12-18T11:10:38.819Z,6.30
2022-12-18T11:13:32.934Z,7.17
2022-12-18T11:16:00.579Z,6.70
2022-12-18T11:18:31.110Z,8.57
2022-12-18T11:21:02.803Z,5.80
2022-12-18T11:23:29.482Z,7.20
2022-12-18T11:25:59.498Z,6.30
2022-12-18T11:28:27.736Z,8.70
2022-12-18T11:31:12.865Z,8.23
2022-12-18T11:33:53.324Z,4.73
2022-12-18T11:36:34.905Z,8.25
2022-12-18T11:39:25.916Z,8.20
2022-12-18T11:42:15.448Z,8.38
2022-12-18T11:45:03.407Z,7.20
2022-12-18T11:47:50.632Z,7.60
2022-12-18T11:50:23.132Z,9.23
2022-12-18T11:52:55.917Z,10.30
2022-12-18T11:55:57.666Z,8.43
2022-12-18T11:58:52.589Z,9.07
2022-12-18T12:01:40.351Z,10.43
2022-12-18T12:04:31.959Z,9.35
2022-12-18T12:07:10.557Z,9.20
2022-12-18T12:10:15.134Z,8.63
2022-12-18T12:13:11.887Z,8.63
2022-12-18T12:16:17.161Z,8.57
2022-12-18T12:18:59.608Z,8.57
2022-12-18T12:21:35.484Z,8.87
2022-12-18T12:24:11.292Z,10.03
2022-12-18T12:26:58.908Z,8.87
2022-12-18T12:29:25.461Z,8.67
2022-12-18T12:31:58.800Z,9.93
2022-12-18T12:35:09.859Z,10.80
2022-12-18T12:37:51.920Z,10.38
2022-12-18T12:40:50.834Z,9.30
2022-12-18T12:43:28.046Z,8.97
2022-12-18T12:46:01.266Z,9.23
2022-12-18T12:48:34.008Z,8.70
2022-12-18T12:51:05.301Z,8.10
2022-12-18T12:56:07.890Z,8.73
2022-12-18T12:58:57.774Z,8.70
2022-12-18T13:01:39.672Z,11.07
2022-12-18T13:04:58.984Z,8.57
2022-12-18T13:07:33.666Z,11.13
2022-12-18T13:10:20.750Z,9.07
2022-12-18T13:13:23.324Z,9.60
2022-12-18T13:16:08.116Z,10.13
2022-12-18T13:18:35.802Z,9.27
2022-12-18T13:21:13.576Z,12.10
2022-12-18T13:23:41.406Z,9.53
2022-12-18T13:26:11.559Z,9.67
2022-12-18T13:28:47.421Z,9.40
2022-12-18T13:31:42.384Z,10.17
2022-12-18T13:34:29.168Z,8.47
2022-12-18T13:37:17.966Z,6.93
2022-12-18T13:39:44.727Z,9.97
2022-12-18T13:42:31.339Z,10.07
2022-12-18T13:44:59.006Z,7.60
2022-12-18T13:47:33.896Z,8.43
2022-12-18T13:50:01.539Z,10.20
2022-12-18T13:52:34.423Z,9.03
2022-12-18T13:55:04.425Z,9.30
2022-12-18T13:57:34.217Z,8.63
2022-12-18T14:00:23.462Z,9.97
2022-12-18T14:02:51.394Z,9.63
2022-12-18T14:05:31.125Z,10.93
2022-12-18T14:08:06.855Z,9.47
2022-12-18T14:10:47.619Z,8.07
2022-12-18T14:13:29.124Z,10.00
2022-12-18T14:15:57.326Z,8.73
2022-12-18T14:18:46.950Z,10.17
2022-12-18T14:21:35.071Z,8.03
2022-12-18T14:24:19.495Z,9.60
2022-12-18T14:26:47.429Z,10.07
2022-12-18T14:29:29.843Z,10.13
2022-12-18T14:32:09.413Z,7.53
2022-12-18T14:34:38.570Z,8.83
2022-12-18T14:37:05.715Z,8.47
2022-12-18T14:39:32.307Z,8.90
2022-12-18T14:41:58.861Z,8.37
2022-12-18T14:44:28.550Z,10.73
2022-12-18T14:46:58.027Z,10.90
2022-12-18T14:49:35.318Z,9.03
2022-12-18T14:52:15.874Z,10.13
2022-12-18T14:54:48.607Z,8.83
2022-12-18T14:57:23.688Z,9.20
2022-12-18T14:59:51.167Z,9.17
2022-12-18T15:02:29.030Z,10.47
2022-12-18T15:05:20.585Z,10.03
2022-12-18T15:07:49.800Z,11.80
2022-12-18T15:10:28.250Z,11.20
2022-12-18T15:12:57.954Z,9.57
2022-12-18T15:15:40.579Z,10.20
2022-12-18T15:18:13.337Z,9.37
2022-12-18T15:20:46.443Z,10.67
2022-12-18T15:23:35.129Z,9.70
2022-12-18T15:26:07.084Z,9.80
2022-12-18T15:28:40.492Z,9.63
2022-12-18T15:33:40.676Z,9.93
2022-12-18T15:36:13.087Z,12.07
2022-12-18T15:38:39.709Z,8.17
2022-12-18T15:41:11.587Z,9.50
2022-12-18T15:43:40.958Z,13.10
2022-12-18T15:46:15.938Z,9.57
2022-12-18T15:48:50.844Z,9.03
2022-12-18T15:51:21.642Z,9.30
2022-12-18T15:53:54.976Z,10.57
2022-12-18T15:56:40.177Z,10.90
2022-12-18T15:59:13.418Z,10.43
2022-12-18T16:01:42.865Z,8.53
2022-12-18T16:04:12.881Z,9.50
2022-12-18T16:06:58.057Z,9.43
2022-12-18T16:09:26.439Z,10.30
2022-12-18T16:11:53.458Z,8.23
2022-12-18T16:14:24.742Z,9.47
2022-12-18T16:16:57.482Z,13.23
2022-12-18T16:19:24.812Z,9.60
2022-12-18T16:21:52.905Z,10.33
2022-12-18T16:24:25.896Z,8.60
2022-12-18T16:26:53.830Z,10.13
2022-12-18T16:29:25.717Z,9.67
2022-12-18T16:31:53.080Z,9.90
2022-12-18T16:34:31.475Z,9.77
2022-12-18T16:37:05.504Z,9.88
2022-12-18T16:39:35.436Z,8.10
2022-12-18T16:42:05.683Z,8.00
2022-12-18T16:44:33.934Z,8.38
2022-12-18T16:47:02.938Z,9.87
2022-12-18T16:49:30.537Z,7.77
2022-12-18T16:51:57.463Z,9.07
2022-12-18T16:54:24.185Z,10.33
2022-12-18T16:56:51.943Z,8.17
2022-12-18T16:59:19.074Z,9.57
2022-12-18T17:01:46.874Z,9.73
2022-12-18T17:04:13.600Z,9.53
2022-12-18T17:06:43.320Z,10.87
2022-12-18T17:09:14.597Z,9.63
2022-12-18T17:11:41.332Z,9.33
2022-12-18T17:14:10.073Z,10.13
2022-12-18T17:16:36.901Z,10.60
2022-12-18T17:19:04.790Z,9.67
2022-12-18T17:21:31.464Z,9.63
2022-12-18T17:24:01.415Z,8.17
2022-12-18T17:26:28.843Z,9.10
2022-12-18T17:28:58.823Z,10.33
2022-12-18T17:31:28.167Z,8.87
2022-12-18T17:33:55.054Z,9.53
2022-12-18T17:36:22.861Z,9.07
2022-12-18T17:38:54.106Z,9.23
2022-12-18T17:41:21.909Z,9.27
2022-12-18T17:43:55.829Z,9.90
2022-12-18T17:46:22.767Z,10.27
2022-12-18T17:48:49.489Z,10.43
2022-12-18T17:51:16.993Z,9.93
2022-12-18T17:53:44.312Z,10.00
2022-12-18T17:56:16.230Z,8.77
2022-12-18T17:58:44.098Z,9.37
2022-12-18T18:01:14.007Z,9.93
2022-12-18T18:03:43.640Z,9.50
2022-12-18T18:06:10.751Z,9.30
2022-12-18T18:08:37.396Z,9.10
2022-12-18T18:11:29.526Z,8.57
2022-12-18T18:14:02.502Z,8.17
2022-12-18T18:16:35.077Z,8.50
2022-12-18T18:19:04.277Z,8.57
2022-12-18T18:21:31.950Z,8.77
2022-12-18T18:24:03.349Z,9.03
2022-12-18T18:26:35.209Z,9.13
2022-12-18T18:29:05.169Z,8.90
2022-12-18T18:31:38.227Z,10.02
2022-12-18T18:34:08.105Z,11.13
2022-12-18T18:36:34.770Z,9.53
2022-12-18T18:39:02.327Z,8.40
2022-12-18T18:41:30.464Z,9.00
2022-12-18T18:43:58.572Z,9.50
2022-12-18T18:46:26.213Z,7.97
2022-12-18T18:48:53.211Z,8.77
2022-12-18T18:51:21.557Z,9.90
2022-12-18T18:53:50.275Z,8.53
2022-12-18T18:56:50.196Z,9.07
2022-12-18T18:59:06.336Z,9.03
2022-12-18T19:01:33.792Z,8.20
2022-12-18T19:04:00.827Z,9.37
2022-12-18T19:06:28.647Z,8.10
2022-12-18T19:08:57.304Z,9.27
2022-12-18T19:11:43.775Z,8.93
2022-12-18T19:14:12.424Z,8.20
2022-12-18T19:16:39.269Z,8.67
2022-12-18T19:19:06.511Z,8.37
2022-12-18T19:21:34.689Z,10.03
2022-12-18T19:24:02.774Z,8.10
2022-12-18T19:26:29.966Z,8.73
2022-12-18T19:29:08.449Z,8.63
2022-12-18T19:31:37.199Z,8.33
2022-12-18T19:34:08.045Z,8.87
2022-12-18T19:36:37.196Z,10.48
2022-12-18T19:39:12.380Z,8.03
2022-12-18T19:41:39.353Z,7.63
2022-12-18T19:44:08.185Z,9.03
2022-12-18T19:46:35.552Z,7.40
2022-12-18T19:49:02.852Z,8.03
2022-12-18T19:51:31.883Z,8.47
2022-12-18T19:54:01.646Z,8.93
2022-12-18T19:56:31.468Z,9.63
2022-12-18T19:58:58.191Z,9.87
2022-12-18T20:01:26.799Z,10.77
2022-12-18T20:03:58.071Z,9.63
2022-12-18T20:06:30.862Z,11.00
2022-12-18T20:09:01.322Z,8.57
2022-12-18T20:11:32.509Z,9.25
2022-12-18T20:16:25.652Z,8.43
2022-12-18T20:18:52.437Z,8.33
2022-12-18T20:21:19.623Z,14.03
2022-12-18T20:23:46.254Z,9.67
2022-12-18T20:26:12.997Z,8.67
2022-12-18T20:28:40.054Z,7.90
2022-12-18T20:31:10.499Z,9.07
2022-12-18T20:33:42.211Z,9.70
2022-12-18T20:36:14.299Z,8.03
2022-12-18T20:38:42.582Z,8.53
2022-12-18T20:41:18.031Z,8.90
2022-12-18T20:43:45.313Z,9.23
2022-12-18T20:46:13.722Z,10.83
2022-12-18T20:48:41.101Z,12.03
2022-12-18T20:51:11.094Z,8.70
2022-12-18T20:53:38.706Z,11.07
2022-12-18T20:56:21.971Z,9.85
2022-12-18T20:58:54.874Z,9.40
2022-12-18T21:01:23.307Z,8.67
2022-12-18T21:03:51.321Z,9.60
2022-12-18T21:06:20.665Z,10.90
2022-12-18T21:08:47.722Z,8.47
2022-12-18T21:11:36.016Z,10.27
2022-12-18T21:14:04.785Z,10.43
2022-12-18T21:16:31.565Z,10.37
2022-12-18T21:18:58.792Z,9.33
2022-12-18T21:21:26.875Z,9.57
2022-12-18T21:23:54.358Z,9.07
2022-12-18T21:26:24.040Z,9.93
2022-12-18T21:28:59.329Z,12.00
2022-12-18T21:31:28.701Z,10.57
2022-12-18T21:34:00.939Z,11.57
2022-12-18T21:36:29.470Z,10.50
2022-12-18T21:38:57.374Z,9.93
2022-12-18T21:41:45.057Z,9.37
2022-12-18T21:44:17.548Z,9.47
2022-12-18T21:46:50.159Z,8.43
2022-12-18T21:49:22.623Z,11.33
2022-12-18T21:51:51.917Z,9.97
2022-12-18T21:54:19.116Z,10.30
2022-12-18T21:56:55.869Z,9.30
2022-12-18T21:59:33.525Z,10.23
2022-12-18T22:02:03.955Z,9.03
2022-12-18T22:04:30.916Z,8.85
2022-12-18T22:06:57.780Z,10.80
2022-12-18T22:09:25.305Z,9.17
2022-12-18T22:11:52.522Z,11.37
2022-12-18T22:14:19.813Z,9.83
2022-12-18T22:16:47.178Z,9.57
2022-12-18T22:19:15.056Z,10.87
2022-12-18T22:21:45.827Z,12.03
2022-12-18T22:24:19.601Z,10.00
2022-12-18T22:26:46.590Z,10.00
2022-12-18T22:29:37.477Z,10.83
2022-12-18T22:32:06.143Z,10.32
2022-12-18T22:34:36.616Z,11.03
2022-12-18T22:37:03.948Z,10.65
2022-12-18T22:39:31.004Z,11.13
2022-12-18T22:41:58.365Z,9.93
2022-12-18T22:44:25.056Z,9.70
2022-12-18T22:47:05.409Z,10.03
2022-12-18T22:49:35.171Z,9.30
2022-12-18T22:52:03.305Z,9.73
2022-12-18T22:54:29.863Z,8.93
2022-12-18T22:56:57.055Z,11.03
2022-12-18T22:59:23.906Z,11.10
2022-12-18T23:01:57.973Z,10.60
2022-12-18T23:04:35.895Z,9.53
2022-12-18T23:07:05.239Z,9.93
2022-12-18T23:09:32.704Z,9.50
2022-12-18T23:11:59.582Z,10.70
2022-12-18T23:14:26.261Z,10.17
2022-12-18T23:16:53.187Z,10.23
2022-12-18T23:19:20.413Z,9.67
2022-12-18T23:21:47.434Z,9.60
2022-12-18T23:24:14.328Z,10.40
2022-12-18T23:26:40.944Z,12.10
2022-12-18T23:29:08.042Z,9.37
2022-12-18T23:31:39.286Z,10.30
2022-12-18T23:34:07.518Z,11.63
2022-12-18T23:36:45.205Z,9.47
2022-12-18T23:39:22.390Z,10.30
2022-12-18T23:41:58.038Z,10.17
2022-12-18T23:44:24.971Z,10.47
2022-12-18T23:46:51.584Z,10.23
2022-12-18T23:49:18.303Z,10.10
2022-12-18T23:51:45.065Z,10.33
2022-12-18T23:54:11.613Z,9.80
2022-12-18T23:56:38.167Z,10.10
2022-12-18T23:59:05.045Z,9.83
